sensor_id;sensor_type;location;lat;lon;timestamp;temperature;humidity
51811;DHT22;52468;40.116;18.296;2024-03-23T00:54:58;13.60;84.40
51811;DHT22;52468;40.116;18.296;2024-03-23T00:57:25;13.60;84.30
51811;DHT22;52468;40.116;18.296;2024-03-23T00:59:51;13.60;84.10
51811;DHT22;52468;40.116;18.296;2024-03-23T01:02:18;13.50;84.10
51811;DHT22;52468;40.116;18.296;2024-03-23T01:04:45;13.40;83.90
51811;DHT22;52468;40.116;18.296;2024-03-23T01:07:12;13.30;84.20
51811;DHT22;52468;40.116;18.296;2024-03-23T01:09:39;13.30;84.40
51811;DHT22;52468;40.116;18.296;2024-03-23T01:12:06;13.40;84.60
51811;DHT22;52468;40.116;18.296;2024-03-23T01:14:32;13.30;84.70
51811;DHT22;52468;40.116;18.296;2024-03-23T01:16:59;13.50;84.60
51811;DHT22;52468;40.116;18.296;2024-03-23T01:19:26;13.50;84.30
51811;DHT22;52468;40.116;18.296;2024-03-23T01:21:53;13.50;84.30
51811;DHT22;52468;40.116;18.296;2024-03-23T01:24:19;13.30;84.30
51811;DHT22;52468;40.116;18.296;2024-03-23T01:26:46;13.50;84.30
51811;DHT22;52468;40.116;18.296;2024-03-23T01:29:13;13.60;84.30
51811;DHT22;52468;40.116;18.296;2024-03-23T01:31:40;13.70;84.10
51811;DHT22;52468;40.116;18.296;2024-03-23T01:34:06;13.80;83.90
51811;DHT22;52468;40.116;18.296;2024-03-23T01:36:34;13.80;83.90
51811;DHT22;52468;40.116;18.296;2024-03-23T01:39:01;13.90;83.30
51811;DHT22;52468;40.116;18.296;2024-03-23T01:41:27;13.80;83.30
51811;DHT22;52468;40.116;18.296;2024-03-23T01:43:55;13.90;83.20
51811;DHT22;52468;40.116;18.296;2024-03-23T01:46:23;13.80;83.60
51811;DHT22;52468;40.116;18.296;2024-03-23T01:48:50;13.70;83.80
51811;DHT22;52468;40.116;18.296;2024-03-23T01:51:17;13.90;83.50
51811;DHT22;52468;40.116;18.296;2024-03-23T01:53:43;13.90;83.10
51811;DHT22;52468;40.116;18.296;2024-03-23T01:56:10;13.70;83.00
51811;DHT22;52468;40.116;18.296;2024-03-23T01:58:37;13.60;83.10
51811;DHT22;52468;40.116;18.296;2024-03-23T02:01:04;13.50;83.90
51811;DHT22;52468;40.116;18.296;2024-03-23T02:03:31;13.50;84.10
51811;DHT22;52468;40.116;18.296;2024-03-23T02:05:58;13.50;84.20
51811;DHT22;52468;40.116;18.296;2024-03-23T02:08:25;13.60;84.30
51811;DHT22;52468;40.116;18.296;2024-03-23T02:10:52;13.70;84.40
51811;DHT22;52468;40.116;18.296;2024-03-23T02:13:19;13.80;84.40
51811;DHT22;52468;40.116;18.296;2024-03-23T02:15:46;13.80;84.40
51811;DHT22;52468;40.116;18.296;2024-03-23T02:18:12;13.80;84.40
51811;DHT22;52468;40.116;18.296;2024-03-23T02:20:39;13.80;84.60
51811;DHT22;52468;40.116;18.296;2024-03-23T02:23:13;13.80;84.50
51811;DHT22;52468;40.116;18.296;2024-03-23T02:25:40;13.80;84.20
51811;DHT22;52468;40.116;18.296;2024-03-23T02:28:07;13.70;84.30
51811;DHT22;52468;40.116;18.296;2024-03-23T02:30:34;13.70;84.50
51811;DHT22;52468;40.116;18.296;2024-03-23T02:33:01;13.70;84.50
51811;DHT22;52468;40.116;18.296;2024-03-23T02:35:28;13.60;84.50
51811;DHT22;52468;40.116;18.296;2024-03-23T02:37:54;13.50;84.70
51811;DHT22;52468;40.116;18.296;2024-03-23T02:40:26;13.50;84.50
51811;DHT22;52468;40.116;18.296;2024-03-23T02:42:53;13.50;84.80
51811;DHT22;52468;40.116;18.296;2024-03-23T02:45:19;13.50;84.60
51811;DHT22;52468;40.116;18.296;2024-03-23T02:47:46;13.30;84.80
51811;DHT22;52468;40.116;18.296;2024-03-23T02:50:13;13.30;84.90
51811;DHT22;52468;40.116;18.296;2024-03-23T02:52:42;13.30;84.90
51811;DHT22;52468;40.116;18.296;2024-03-23T02:55:08;13.30;84.70
51811;DHT22;52468;40.116;18.296;2024-03-23T02:57:35;13.20;84.80
51811;DHT22;52468;40.116;18.296;2024-03-23T03:00:02;13.10;84.80
51811;DHT22;52468;40.116;18.296;2024-03-23T03:02:29;13.10;85.00
51811;DHT22;52468;40.116;18.296;2024-03-23T03:04:56;13.10;84.90
51811;DHT22;52468;40.116;18.296;2024-03-23T03:07:23;13.20;85.00
51811;DHT22;52468;40.116;18.296;2024-03-23T03:09:50;13.10;84.80
51811;DHT22;52468;40.116;18.296;2024-03-23T03:12:17;13.10;84.80
51811;DHT22;52468;40.116;18.296;2024-03-23T03:14:44;13.10;85.00
51811;DHT22;52468;40.116;18.296;2024-03-23T03:17:10;13.10;84.90
51811;DHT22;52468;40.116;18.296;2024-03-23T03:19:37;13.10;84.90
51811;DHT22;52468;40.116;18.296;2024-03-23T03:22:04;13.10;84.80
51811;DHT22;52468;40.116;18.296;2024-03-23T03:24:31;13.10;84.70
51811;DHT22;52468;40.116;18.296;2024-03-23T03:26:58;13.10;84.60
51811;DHT22;52468;40.116;18.296;2024-03-23T03:29:25;13.10;84.70
51811;DHT22;52468;40.116;18.296;2024-03-23T03:31:52;13.10;84.70
51811;DHT22;52468;40.116;18.296;2024-03-23T03:34:18;13.10;84.80
51811;DHT22;52468;40.116;18.296;2024-03-23T03:36:45;13.10;84.60
51811;DHT22;52468;40.116;18.296;2024-03-23T03:39:12;13.00;84.90
51811;DHT22;52468;40.116;18.296;2024-03-23T03:41:39;13.00;84.90
51811;DHT22;52468;40.116;18.296;2024-03-23T03:44:05;13.10;84.50
51811;DHT22;52468;40.116;18.296;2024-03-23T03:46:32;13.00;84.50
51811;DHT22;52468;40.116;18.296;2024-03-23T03:48:59;12.90;84.60
51811;DHT22;52468;40.116;18.296;2024-03-23T03:51:26;12.90;84.60
51811;DHT22;52468;40.116;18.296;2024-03-23T03:53:52;12.90;84.40
51811;DHT22;52468;40.116;18.296;2024-03-23T03:56:19;12.80;84.60
51811;DHT22;52468;40.116;18.296;2024-03-23T03:58:46;12.70;84.80
51811;DHT22;52468;40.116;18.296;2024-03-23T04:01:13;12.80;84.90
51811;DHT22;52468;40.116;18.296;2024-03-23T04:03:39;12.80;84.80
51811;DHT22;52468;40.116;18.296;2024-03-23T04:06:10;12.80;84.90
51811;DHT22;52468;40.116;18.296;2024-03-23T04:08:37;12.70;84.80
51811;DHT22;52468;40.116;18.296;2024-03-23T04:11:03;12.70;84.70
51811;DHT22;52468;40.116;18.296;2024-03-23T04:13:30;12.60;84.80
51811;DHT22;52468;40.116;18.296;2024-03-23T04:15:57;12.60;84.80
51811;DHT22;52468;40.116;18.296;2024-03-23T04:18:24;12.60;84.80
51811;DHT22;52468;40.116;18.296;2024-03-23T04:20:51;12.50;84.90
51811;DHT22;52468;40.116;18.296;2024-03-23T04:23:18;12.50;85.00
51811;DHT22;52468;40.116;18.296;2024-03-23T04:25:45;12.50;85.10
51811;DHT22;52468;40.116;18.296;2024-03-23T04:28:11;12.40;85.00
51811;DHT22;52468;40.116;18.296;2024-03-23T04:30:38;12.40;84.80
51811;DHT22;52468;40.116;18.296;2024-03-23T04:33:05;12.30;85.00
51811;DHT22;52468;40.116;18.296;2024-03-23T04:35:32;12.30;85.20
51811;DHT22;52468;40.116;18.296;2024-03-23T04:37:58;12.30;85.10
51811;DHT22;52468;40.116;18.296;2024-03-23T04:40:26;12.30;85.20
51811;DHT22;52468;40.116;18.296;2024-03-23T04:42:53;12.30;85.30
51811;DHT22;52468;40.116;18.296;2024-03-23T04:45:19;12.30;85.40
51811;DHT22;52468;40.116;18.296;2024-03-23T04:47:46;12.30;85.20
51811;DHT22;52468;40.116;18.296;2024-03-23T04:50:13;12.30;85.30
51811;DHT22;52468;40.116;18.296;2024-03-23T04:52:40;12.30;85.40
51811;DHT22;52468;40.116;18.296;2024-03-23T04:55:09;12.30;85.40
51811;DHT22;52468;40.116;18.296;2024-03-23T04:57:36;12.30;85.40
51811;DHT22;52468;40.116;18.296;2024-03-23T05:00:03;12.40;85.40
51811;DHT22;52468;40.116;18.296;2024-03-23T05:02:39;12.40;85.30
51811;DHT22;52468;40.116;18.296;2024-03-23T05:05:06;12.50;85.20
51811;DHT22;52468;40.116;18.296;2024-03-23T05:07:34;12.60;85.10
51811;DHT22;52468;40.116;18.296;2024-03-23T05:10:00;12.60;85.10
51811;DHT22;52468;40.116;18.296;2024-03-23T05:12:27;12.80;84.90
51811;DHT22;52468;40.116;18.296;2024-03-23T05:14:54;12.90;84.90
51811;DHT22;52468;40.116;18.296;2024-03-23T05:17:21;13.00;84.80
51811;DHT22;52468;40.116;18.296;2024-03-23T05:19:48;13.00;84.80
51811;DHT22;52468;40.116;18.296;2024-03-23T05:22:14;13.10;84.70
51811;DHT22;52468;40.116;18.296;2024-03-23T05:24:41;13.30;84.30
51811;DHT22;52468;40.116;18.296;2024-03-23T05:27:08;13.50;84.00
51811;DHT22;52468;40.116;18.296;2024-03-23T05:29:35;13.60;83.70
51811;DHT22;52468;40.116;18.296;2024-03-23T05:32:02;13.70;83.50
51811;DHT22;52468;40.116;18.296;2024-03-23T05:34:29;13.80;83.20
51811;DHT22;52468;40.116;18.296;2024-03-23T05:36:55;13.90;83.20
51811;DHT22;52468;40.116;18.296;2024-03-23T05:39:22;14.00;83.10
51811;DHT22;52468;40.116;18.296;2024-03-23T05:41:50;14.10;83.00
51811;DHT22;52468;40.116;18.296;2024-03-23T05:44:17;14.10;83.10
51811;DHT22;52468;40.116;18.296;2024-03-23T05:46:45;14.30;83.10
51811;DHT22;52468;40.116;18.296;2024-03-23T05:49:16;14.30;83.10
51811;DHT22;52468;40.116;18.296;2024-03-23T05:51:43;14.50;83.30
51811;DHT22;52468;40.116;18.296;2024-03-23T05:54:10;14.50;83.10
51811;DHT22;52468;40.116;18.296;2024-03-23T05:56:37;14.60;83.50
51811;DHT22;52468;40.116;18.296;2024-03-23T05:59:04;14.80;83.50
51811;DHT22;52468;40.116;18.296;2024-03-23T06:01:30;14.90;83.60
51811;DHT22;52468;40.116;18.296;2024-03-23T06:03:59;15.00;83.20
51811;DHT22;52468;40.116;18.296;2024-03-23T06:06:28;15.10;83.70
51811;DHT22;52468;40.116;18.296;2024-03-23T06:08:56;15.30;83.60
51811;DHT22;52468;40.116;18.296;2024-03-23T06:11:23;15.40;83.70
51811;DHT22;52468;40.116;18.296;2024-03-23T06:13:50;15.50;83.70
51811;DHT22;52468;40.116;18.296;2024-03-23T06:16:17;15.60;83.70
51811;DHT22;52468;40.116;18.296;2024-03-23T06:18:50;15.70;83.80
51811;DHT22;52468;40.116;18.296;2024-03-23T06:21:17;15.80;83.50
51811;DHT22;52468;40.116;18.296;2024-03-23T06:23:44;15.80;83.80
51811;DHT22;52468;40.116;18.296;2024-03-23T06:26:18;15.90;84.10
51811;DHT22;52468;40.116;18.296;2024-03-23T06:28:45;16.00;84.20
51811;DHT22;52468;40.116;18.296;2024-03-23T06:31:12;16.00;84.00
51811;DHT22;52468;40.116;18.296;2024-03-23T06:33:39;16.10;84.30
51811;DHT22;52468;40.116;18.296;2024-03-23T06:36:10;16.10;84.70
51811;DHT22;52468;40.116;18.296;2024-03-23T06:38:38;16.30;85.00
51811;DHT22;52468;40.116;18.296;2024-03-23T06:41:05;16.50;84.80
51811;DHT22;52468;40.116;18.296;2024-03-23T06:43:32;16.60;84.70
51811;DHT22;52468;40.116;18.296;2024-03-23T06:45:59;16.80;85.40
51811;DHT22;52468;40.116;18.296;2024-03-23T06:48:26;17.10;85.60
51811;DHT22;52468;40.116;18.296;2024-03-23T06:50:57;17.10;84.80
51811;DHT22;52468;40.116;18.296;2024-03-23T06:53:24;17.10;84.90
51811;DHT22;52468;40.116;18.296;2024-03-23T06:55:52;17.10;84.50
51811;DHT22;52468;40.116;18.296;2024-03-23T06:58:20;17.30;85.00
51811;DHT22;52468;40.116;18.296;2024-03-23T07:00:47;17.50;85.10
51811;DHT22;52468;40.116;18.296;2024-03-23T07:03:15;17.60;84.80
51811;DHT22;52468;40.116;18.296;2024-03-23T07:05:41;17.70;84.10
51811;DHT22;52468;40.116;18.296;2024-03-23T07:08:09;18.00;84.90
51811;DHT22;52468;40.116;18.296;2024-03-23T07:10:39;17.90;82.80
51811;DHT22;52468;40.116;18.296;2024-03-23T07:13:06;18.20;84.30
51811;DHT22;52468;40.116;18.296;2024-03-23T07:15:34;18.20;83.50
51811;DHT22;52468;40.116;18.296;2024-03-23T07:18:00;18.40;83.20
51811;DHT22;52468;40.116;18.296;2024-03-23T07:20:27;18.50;83.10
51811;DHT22;52468;40.116;18.296;2024-03-23T07:22:56;18.70;82.90
51811;DHT22;52468;40.116;18.296;2024-03-23T07:25:23;18.70;81.80
51811;DHT22;52468;40.116;18.296;2024-03-23T07:27:53;18.70;82.80
51811;DHT22;52468;40.116;18.296;2024-03-23T07:30:20;19.00;83.50
51811;DHT22;52468;40.116;18.296;2024-03-23T07:32:47;19.20;82.00
51811;DHT22;52468;40.116;18.296;2024-03-23T07:35:14;19.40;82.00
51811;DHT22;52468;40.116;18.296;2024-03-23T07:37:41;19.50;82.00
51811;DHT22;52468;40.116;18.296;2024-03-23T07:40:08;19.30;78.60
51811;DHT22;52468;40.116;18.296;2024-03-23T07:42:36;19.20;80.70
51811;DHT22;52468;40.116;18.296;2024-03-23T07:45:04;19.10;80.20
51811;DHT22;52468;40.116;18.296;2024-03-23T07:47:31;19.10;80.10
51811;DHT22;52468;40.116;18.296;2024-03-23T07:49:58;19.20;79.20
51811;DHT22;52468;40.116;18.296;2024-03-23T07:52:28;19.10;80.00
51811;DHT22;52468;40.116;18.296;2024-03-23T07:54:55;19.20;77.70
51811;DHT22;52468;40.116;18.296;2024-03-23T07:57:22;19.30;79.60
51811;DHT22;52468;40.116;18.296;2024-03-23T07:59:49;19.50;78.90
51811;DHT22;52468;40.116;18.296;2024-03-23T08:02:16;19.50;77.00
51811;DHT22;52468;40.116;18.296;2024-03-23T08:04:43;19.60;78.30
51811;DHT22;52468;40.116;18.296;2024-03-23T08:07:09;19.80;77.90
51811;DHT22;52468;40.116;18.296;2024-03-23T08:09:36;19.90;76.40
51811;DHT22;52468;40.116;18.296;2024-03-23T08:12:03;19.90;76.50
51811;DHT22;52468;40.116;18.296;2024-03-23T08:14:30;20.10;76.90
51811;DHT22;52468;40.116;18.296;2024-03-23T08:16:57;20.30;75.20
51811;DHT22;52468;40.116;18.296;2024-03-23T08:19:24;20.50;74.70
51811;DHT22;52468;40.116;18.296;2024-03-23T08:21:51;20.40;70.70
51811;DHT22;52468;40.116;18.296;2024-03-23T08:24:18;20.00;69.20
51811;DHT22;52468;40.116;18.296;2024-03-23T08:26:46;19.90;69.90
51811;DHT22;52468;40.116;18.296;2024-03-23T08:29:12;20.10;68.90
51811;DHT22;52468;40.116;18.296;2024-03-23T08:31:39;20.40;67.50
51811;DHT22;52468;40.116;18.296;2024-03-23T08:34:06;20.50;65.80
51811;DHT22;52468;40.116;18.296;2024-03-23T08:36:33;20.70;63.50
51811;DHT22;52468;40.116;18.296;2024-03-23T08:38:59;20.80;61.20
51811;DHT22;52468;40.116;18.296;2024-03-23T08:41:26;20.90;59.80
51811;DHT22;52468;40.116;18.296;2024-03-23T08:43:53;21.00;60.60
51811;DHT22;52468;40.116;18.296;2024-03-23T08:46:20;21.10;59.40
51811;DHT22;52468;40.116;18.296;2024-03-23T08:48:47;21.20;59.20
51811;DHT22;52468;40.116;18.296;2024-03-23T08:51:16;21.50;57.90
51811;DHT22;52468;40.116;18.296;2024-03-23T08:53:45;21.60;55.80
51811;DHT22;52468;40.116;18.296;2024-03-23T08:56:12;21.70;54.30
51811;DHT22;52468;40.116;18.296;2024-03-23T08:58:39;21.80;54.40
51811;DHT22;52468;40.116;18.296;2024-03-23T09:01:13;21.80;54.40
51811;DHT22;52468;40.116;18.296;2024-03-23T09:03:40;22.00;52.90
51811;DHT22;52468;40.116;18.296;2024-03-23T09:08:35;22.00;51.80
51811;DHT22;52468;40.116;18.296;2024-03-23T09:11:11;22.20;50.70
51811;DHT22;52468;40.116;18.296;2024-03-23T09:13:39;22.30;50.10
51811;DHT22;52468;40.116;18.296;2024-03-23T09:16:06;22.40;50.20
51811;DHT22;52468;40.116;18.296;2024-03-23T09:18:34;22.40;49.90
51811;DHT22;52468;40.116;18.296;2024-03-23T09:21:11;22.60;50.00
51811;DHT22;52468;40.116;18.296;2024-03-23T09:23:38;22.80;49.50
51811;DHT22;52468;40.116;18.296;2024-03-23T09:26:05;23.00;48.50
51811;DHT22;52468;40.116;18.296;2024-03-23T09:28:34;23.30;47.90
51811;DHT22;52468;40.116;18.296;2024-03-23T09:31:08;23.20;47.00
51811;DHT22;52468;40.116;18.296;2024-03-23T09:33:36;23.40;46.60
51811;DHT22;52468;40.116;18.296;2024-03-23T09:36:04;23.50;46.10
51811;DHT22;52468;40.116;18.296;2024-03-23T09:38:31;23.50;46.30
51811;DHT22;52468;40.116;18.296;2024-03-23T09:40:58;23.30;46.10
51811;DHT22;52468;40.116;18.296;2024-03-23T09:43:26;23.30;46.60
51811;DHT22;52468;40.116;18.296;2024-03-23T09:45:53;23.20;46.70
51811;DHT22;52468;40.116;18.296;2024-03-23T09:48:20;23.10;47.10
51811;DHT22;52468;40.116;18.296;2024-03-23T09:50:47;23.30;47.30
51811;DHT22;52468;40.116;18.296;2024-03-23T09:53:15;23.50;46.70
51811;DHT22;52468;40.116;18.296;2024-03-23T09:55:43;23.70;46.60
51811;DHT22;52468;40.116;18.296;2024-03-23T09:58:18;23.90;46.00
51811;DHT22;52468;40.116;18.296;2024-03-23T10:00:45;24.10;45.30
51811;DHT22;52468;40.116;18.296;2024-03-23T10:03:12;24.20;44.60
51811;DHT22;52468;40.116;18.296;2024-03-23T10:05:39;24.40;45.10
51811;DHT22;52468;40.116;18.296;2024-03-23T10:10:43;24.90;44.70
51811;DHT22;52468;40.116;18.296;2024-03-23T10:13:10;25.10;44.20
51811;DHT22;52468;40.116;18.296;2024-03-23T10:15:39;25.30;43.60
51811;DHT22;52468;40.116;18.296;2024-03-23T10:18:19;25.30;42.80
51811;DHT22;52468;40.116;18.296;2024-03-23T10:20:50;25.20;43.30
51811;DHT22;52468;40.116;18.296;2024-03-23T10:23:17;25.40;43.00
51811;DHT22;52468;40.116;18.296;2024-03-23T10:25:44;25.30;42.90
51811;DHT22;52468;40.116;18.296;2024-03-23T10:28:12;25.40;43.00
51811;DHT22;52468;40.116;18.296;2024-03-23T10:30:39;25.60;42.90
51811;DHT22;52468;40.116;18.296;2024-03-23T10:33:10;25.60;42.70
51811;DHT22;52468;40.116;18.296;2024-03-23T10:35:37;25.80;42.60
51811;DHT22;52468;40.116;18.296;2024-03-23T10:38:05;26.00;41.90
51811;DHT22;52468;40.116;18.296;2024-03-23T10:40:36;25.90;42.10
51811;DHT22;52468;40.116;18.296;2024-03-23T10:43:04;25.50;43.10
51811;DHT22;52468;40.116;18.296;2024-03-23T10:45:31;25.60;42.60
51811;DHT22;52468;40.116;18.296;2024-03-23T10:47:58;25.10;43.10
51811;DHT22;52468;40.116;18.296;2024-03-23T10:50:25;25.00;43.60
51811;DHT22;52468;40.116;18.296;2024-03-23T10:52:53;25.10;44.00
51811;DHT22;52468;40.116;18.296;2024-03-23T10:55:23;25.30;43.20
51811;DHT22;52468;40.116;18.296;2024-03-23T10:57:55;25.10;43.30
51811;DHT22;52468;40.116;18.296;2024-03-23T11:00:22;25.00;43.80
51811;DHT22;52468;40.116;18.296;2024-03-23T11:02:49;24.70;44.60
51811;DHT22;52468;40.116;18.296;2024-03-23T11:07:53;24.50;44.70
51811;DHT22;52468;40.116;18.296;2024-03-23T11:10:28;24.50;44.70
51811;DHT22;52468;40.116;18.296;2024-03-23T11:13:22;24.60;44.30
51811;DHT22;52468;40.116;18.296;2024-03-23T11:15:50;24.60;43.50
51811;DHT22;52468;40.116;18.296;2024-03-23T11:18:22;24.70;43.20
51811;DHT22;52468;40.116;18.296;2024-03-23T11:20:49;24.80;43.40
51811;DHT22;52468;40.116;18.296;2024-03-23T11:23:28;24.80;43.50
51811;DHT22;52468;40.116;18.296;2024-03-23T11:25:55;24.80;43.90
51811;DHT22;52468;40.116;18.296;2024-03-23T11:28:22;24.90;43.80
51811;DHT22;52468;40.116;18.296;2024-03-23T11:30:49;24.80;43.20
51811;DHT22;52468;40.116;18.296;2024-03-23T11:33:16;24.80;43.50
51811;DHT22;52468;40.116;18.296;2024-03-23T11:35:43;25.00;43.40
51811;DHT22;52468;40.116;18.296;2024-03-23T11:38:10;25.00;42.80
51811;DHT22;52468;40.116;18.296;2024-03-23T11:40:42;25.00;43.10
51811;DHT22;52468;40.116;18.296;2024-03-23T11:43:12;24.70;43.50
51811;DHT22;52468;40.116;18.296;2024-03-23T11:45:44;24.70;44.20
51811;DHT22;52468;40.116;18.296;2024-03-23T11:48:15;24.90;43.80
51811;DHT22;52468;40.116;18.296;2024-03-23T11:50:46;25.10;43.60
51811;DHT22;52468;40.116;18.296;2024-03-23T11:53:25;25.00;43.40
51811;DHT22;52468;40.116;18.296;2024-03-23T11:55:56;24.60;43.70
51811;DHT22;52468;40.116;18.296;2024-03-23T11:58:25;24.20;44.50
51811;DHT22;52468;40.116;18.296;2024-03-23T12:00:55;23.90;44.90
51811;DHT22;52468;40.116;18.296;2024-03-23T12:03:22;23.50;45.00
51811;DHT22;52468;40.116;18.296;2024-03-23T12:05:53;23.10;45.80
51811;DHT22;52468;40.116;18.296;2024-03-23T12:08:24;22.80;46.90
51811;DHT22;52468;40.116;18.296;2024-03-23T12:10:53;22.40;47.40
51811;DHT22;52468;40.116;18.296;2024-03-23T12:13:30;22.00;46.90
51811;DHT22;52468;40.116;18.296;2024-03-23T12:16:19;21.60;47.10
51811;DHT22;52468;40.116;18.296;2024-03-23T12:18:48;21.50;46.00
51811;DHT22;52468;40.116;18.296;2024-03-23T12:21:18;21.40;46.10
51811;DHT22;52468;40.116;18.296;2024-03-23T12:23:45;21.10;47.90
51811;DHT22;52468;40.116;18.296;2024-03-23T12:26:13;21.00;49.00
51811;DHT22;52468;40.116;18.296;2024-03-23T12:28:40;20.90;50.30
51811;DHT22;52468;40.116;18.296;2024-03-23T12:31:07;20.90;51.20
51811;DHT22;52468;40.116;18.296;2024-03-23T12:33:34;20.90;51.80
51811;DHT22;52468;40.116;18.296;2024-03-23T12:36:00;20.90;52.80
51811;DHT22;52468;40.116;18.296;2024-03-23T12:38:27;20.70;54.40
51811;DHT22;52468;40.116;18.296;2024-03-23T12:40:54;20.50;57.00
51811;DHT22;52468;40.116;18.296;2024-03-23T12:43:21;20.10;58.70
51811;DHT22;52468;40.116;18.296;2024-03-23T12:45:48;20.20;61.10
51811;DHT22;52468;40.116;18.296;2024-03-23T12:48:16;20.20;61.10
51811;DHT22;52468;40.116;18.296;2024-03-23T12:50:43;20.10;62.50
51811;DHT22;52468;40.116;18.296;2024-03-23T12:53:09;19.80;62.40
51811;DHT22;52468;40.116;18.296;2024-03-23T12:55:36;19.60;62.50
51811;DHT22;52468;40.116;18.296;2024-03-23T12:58:03;19.50;63.30
51811;DHT22;52468;40.116;18.296;2024-03-23T13:00:31;19.30;63.30
51811;DHT22;52468;40.116;18.296;2024-03-23T13:02:58;19.20;64.10
51811;DHT22;52468;40.116;18.296;2024-03-23T13:05:24;19.30;63.90
51811;DHT22;52468;40.116;18.296;2024-03-23T13:07:51;19.30;64.30
51811;DHT22;52468;40.116;18.296;2024-03-23T13:10:18;19.50;64.10
51811;DHT22;52468;40.116;18.296;2024-03-23T13:12:45;19.60;62.70
51811;DHT22;52468;40.116;18.296;2024-03-23T13:15:11;19.90;61.80
51811;DHT22;52468;40.116;18.296;2024-03-23T13:17:38;20.20;60.90
51811;DHT22;52468;40.116;18.296;2024-03-23T13:20:05;20.50;60.00
51811;DHT22;52468;40.116;18.296;2024-03-23T13:22:32;20.80;59.00
51811;DHT22;52468;40.116;18.296;2024-03-23T13:24:59;21.10;57.80
51811;DHT22;52468;40.116;18.296;2024-03-23T13:27:26;21.30;56.30
51811;DHT22;52468;40.116;18.296;2024-03-23T13:29:53;21.50;55.90
51811;DHT22;52468;40.116;18.296;2024-03-23T13:32:20;21.60;53.30
51811;DHT22;52468;40.116;18.296;2024-03-23T13:34:46;21.70;53.10
51811;DHT22;52468;40.116;18.296;2024-03-23T13:37:16;22.00;51.70
51811;DHT22;52468;40.116;18.296;2024-03-23T13:39:43;22.20;50.60
51811;DHT22;52468;40.116;18.296;2024-03-23T13:42:10;22.50;48.90
51811;DHT22;52468;40.116;18.296;2024-03-23T13:44:39;22.60;48.10
51811;DHT22;52468;40.116;18.296;2024-03-23T13:47:05;22.90;47.60
51811;DHT22;52468;40.116;18.296;2024-03-23T13:49:32;23.10;47.80
51811;DHT22;52468;40.116;18.296;2024-03-23T13:51:59;23.40;47.50
51811;DHT22;52468;40.116;18.296;2024-03-23T13:54:27;23.80;46.90
51811;DHT22;52468;40.116;18.296;2024-03-23T13:56:55;24.20;45.50
51811;DHT22;52468;40.116;18.296;2024-03-23T13:59:23;24.80;44.10
51811;DHT22;52468;40.116;18.296;2024-03-23T14:01:51;25.50;42.50
51811;DHT22;52468;40.116;18.296;2024-03-23T14:04:18;26.00;40.60
51811;DHT22;52468;40.116;18.296;2024-03-23T14:06:46;26.60;38.80
51811;DHT22;52468;40.116;18.296;2024-03-23T14:09:14;27.20;38.50
51811;DHT22;52468;40.116;18.296;2024-03-23T14:11:41;28.00;36.30
51811;DHT22;52468;40.116;18.296;2024-03-23T14:14:10;28.30;35.70
51811;DHT22;52468;40.116;18.296;2024-03-23T14:16:37;28.40;34.70
51811;DHT22;52468;40.116;18.296;2024-03-23T14:19:03;28.10;34.30
51811;DHT22;52468;40.116;18.296;2024-03-23T14:21:33;28.00;34.10
51811;DHT22;52468;40.116;18.296;2024-03-23T14:31:22;32.60;28.00
51811;DHT22;52468;40.116;18.296;2024-03-23T14:33:50;33.90;26.40
51811;DHT22;52468;40.116;18.296;2024-03-23T14:36:17;34.50;24.60
51811;DHT22;52468;40.116;18.296;2024-03-23T14:38:48;34.60;24.50
51811;DHT22;52468;40.116;18.296;2024-03-23T14:41:15;34.80;24.00
51811;DHT22;52468;40.116;18.296;2024-03-23T14:43:42;34.80;23.80
51811;DHT22;52468;40.116;18.296;2024-03-23T14:46:14;34.90;23.40
51811;DHT22;52468;40.116;18.296;2024-03-23T14:48:42;34.80;23.40
51811;DHT22;52468;40.116;18.296;2024-03-23T14:51:11;34.50;23.60
51811;DHT22;52468;40.116;18.296;2024-03-23T14:53:40;34.30;23.90
51811;DHT22;52468;40.116;18.296;2024-03-23T14:56:08;34.10;24.10
51811;DHT22;52468;40.116;18.296;2024-03-23T14:58:36;34.10;24.20
51811;DHT22;52468;40.116;18.296;2024-03-23T15:01:07;34.20;24.40
51811;DHT22;52468;40.116;18.296;2024-03-23T15:03:38;34.20;24.40
51811;DHT22;52468;40.116;18.296;2024-03-23T15:06:09;33.90;24.90
51811;DHT22;52468;40.116;18.296;2024-03-23T15:08:37;33.70;25.10
51811;DHT22;52468;40.116;18.296;2024-03-23T15:11:05;33.90;25.10
51811;DHT22;52468;40.116;18.296;2024-03-23T15:13:35;34.00;24.90
51811;DHT22;52468;40.116;18.296;2024-03-23T15:16:03;34.20;24.40
51811;DHT22;52468;40.116;18.296;2024-03-23T15:18:31;34.30;23.90
51811;DHT22;52468;40.116;18.296;2024-03-23T15:20:59;34.00;24.10
51811;DHT22;52468;40.116;18.296;2024-03-23T15:23:29;33.70;24.50
51811;DHT22;52468;40.116;18.296;2024-03-23T15:25:57;33.20;25.10
51811;DHT22;52468;40.116;18.296;2024-03-23T15:28:24;33.00;25.50
51811;DHT22;52468;40.116;18.296;2024-03-23T15:30:59;33.00;25.70
51811;DHT22;52468;40.116;18.296;2024-03-23T15:33:26;32.70;26.30
51811;DHT22;52468;40.116;18.296;2024-03-23T15:35:53;32.40;26.60
51811;DHT22;52468;40.116;18.296;2024-03-23T15:38:20;32.40;26.80
51811;DHT22;52468;40.116;18.296;2024-03-23T15:40:51;32.20;26.90
51811;DHT22;52468;40.116;18.296;2024-03-23T15:43:18;32.00;27.00
51811;DHT22;52468;40.116;18.296;2024-03-23T15:45:56;32.00;27.10
51811;DHT22;52468;40.116;18.296;2024-03-23T15:48:24;32.00;26.90
51811;DHT22;52468;40.116;18.296;2024-03-23T15:50:53;31.30;27.80
51811;DHT22;52468;40.116;18.296;2024-03-23T15:53:20;30.10;29.30
51811;DHT22;52468;40.116;18.296;2024-03-23T15:58:21;27.60;33.20
51811;DHT22;52468;40.116;18.296;2024-03-23T16:00:58;26.00;35.50
51811;DHT22;52468;40.116;18.296;2024-03-23T16:03:26;24.60;37.70
51811;DHT22;52468;40.116;18.296;2024-03-23T16:05:58;23.60;39.70
51811;DHT22;52468;40.116;18.296;2024-03-23T16:08:25;22.60;41.40
51811;DHT22;52468;40.116;18.296;2024-03-23T16:10:53;22.00;42.90
51811;DHT22;52468;40.116;18.296;2024-03-23T16:13:21;21.20;44.40
51811;DHT22;52468;40.116;18.296;2024-03-23T16:16:02;20.80;45.40
51811;DHT22;52468;40.116;18.296;2024-03-23T16:18:37;20.50;46.50
51811;DHT22;52468;40.116;18.296;2024-03-23T16:21:06;20.10;47.40
51811;DHT22;52468;40.116;18.296;2024-03-23T16:26:01;19.70;49.50
51811;DHT22;52468;40.116;18.296;2024-03-23T16:28:30;19.60;50.50
51811;DHT22;52468;40.116;18.296;2024-03-23T16:30:59;19.40;51.20
51811;DHT22;52468;40.116;18.296;2024-03-23T16:33:27;19.20;51.60